Time;durP1;ratioP1;P1;durP2;ratioP2;P2;SDS_P1;SDS_P2;PMS_P1;PMS_P2;Temp;Humidity;BMP_temperature;BMP_pressure;BME280_temperature;BME280_humidity;BME280_pressure;Samples;Min_cycle;Max_cycle;Signal;HPM_P1;HPM_P2
2021/10/25 00:01:09;;;;;;;1999.90;999.90;;;;;;;4.73;97.96;97040.09;5049410;28;20209;-69
2021/10/25 00:03:36;;;;;;;1999.90;999.90;;;;;;;4.79;97.20;97038.44;5049487;28;20671;-69
2021/10/25 00:06:04;;;;;;;1999.90;999.90;;;;;;;4.79;97.18;97033.31;5049197;28;20201;-69
2021/10/25 00:08:31;;;;;;;1999.90;999.90;;;;;;;4.88;96.85;97031.97;5049201;28;20229;-69
2021/10/25 00:10:58;;;;;;;1999.90;999.90;;;;;;;4.92;97.54;97032.34;5049326;28;20673;-68
2021/10/25 00:13:25;;;;;;;1999.90;999.90;;;;;;;4.94;97.15;97030.31;5049112;28;20232;-68
2021/10/25 00:15:54;;;;;;;1999.90;999.90;;;;;;;4.94;96.22;97025.19;5049141;28;20289;-68
2021/10/25 00:18:21;;;;;;;1999.90;999.90;;;;;;;4.88;97.05;97033.81;5049383;28;20587;-68
2021/10/25 00:20:48;;;;;;;1999.90;999.90;;;;;;;4.86;96.36;97041.75;5049090;28;20668;-68
2021/10/25 00:23:15;;;;;;;1999.90;999.90;;;;;;;4.84;96.63;97040.38;5048779;28;20613;-68
2021/10/25 00:25:42;;;;;;;1999.90;999.90;;;;;;;4.70;95.76;97044.91;5049012;28;20205;-68
2021/10/25 00:28:09;;;;;;;1999.90;999.90;;;;;;;4.66;95.51;97033.47;5049003;28;20205;-68
2021/10/25 00:30:36;;;;;;;1999.90;999.90;;;;;;;4.52;95.45;97043.16;5049213;28;20672;-68
2021/10/25 00:33:04;;;;;;;1999.90;999.90;;;;;;;4.51;95.58;97036.44;5049041;28;20648;-68
2021/10/25 00:35:31;;;;;;;1999.90;999.90;;;;;;;4.39;96.98;97038.16;5048795;28;20209;-68
2021/10/25 00:37:58;;;;;;;1999.90;999.90;;;;;;;4.40;96.22;97033.78;5049051;28;20194;-68
2021/10/25 00:40:26;;;;;;;1999.90;999.90;;;;;;;4.36;96.44;97038.59;5049018;28;20246;-69
2021/10/25 00:42:53;;;;;;;1999.90;999.90;;;;;;;4.36;96.40;97042.94;5049002;28;20197;-68
2021/10/25 00:45:20;;;;;;;1999.90;999.90;;;;;;;4.33;97.57;97039.03;5048662;28;20241;-68
2021/10/25 00:47:47;;;;;;;1999.90;999.90;;;;;;;4.27;97.24;97035.53;5048946;28;20202;-68
2021/10/25 00:50:15;;;;;;;1999.90;999.90;;;;;;;4.29;97.85;97038.66;5048552;28;20684;-69
2021/10/25 00:52:43;;;;;;;1999.90;999.90;;;;;;;4.27;97.51;97040.69;5048552;28;20205;-68
2021/10/25 00:55:12;;;;;;;1999.90;999.90;;;;;;;4.24;97.31;97041.09;5048549;28;20677;-69
2021/10/25 00:57:39;;;;;;;1999.90;999.90;;;;;;;4.21;97.86;97036.38;5048533;28;20943;-69
2021/10/25 01:00:08;;;;;;;1999.90;999.90;;;;;;;4.14;98.08;97034.88;5048567;28;20277;-68
2021/10/25 01:02:35;;;;;;;1999.90;999.90;;;;;;;4.24;97.74;97035.16;5048787;28;20202;-68
2021/10/25 01:05:06;;;;;;;1999.90;999.90;;;;;;;4.27;97.90;97035.53;5048345;28;20189;-68
2021/10/25 01:07:36;;;;;;;1999.90;999.90;;;;;;;4.15;97.84;97032.09;5047950;28;20184;-69
2021/10/25 01:10:04;;;;;;;1999.90;999.90;;;;;;;4.17;98.03;97032.69;5048257;28;20198;-68
2021/10/25 01:12:32;;;;;;;1999.90;999.90;;;;;;;4.26;98.01;97033.16;5048535;28;20197;-68
2021/10/25 01:14:59;;;;;;;1999.90;999.90;;;;;;;4.17;98.08;97027.53;5048207;28;20273;-68
2021/10/25 01:17:27;;;;;;;1999.90;999.90;;;;;;;4.27;98.46;97030.38;5048506;28;20197;-69
2021/10/25 01:19:58;;;;;;;1999.90;999.90;;;;;;;4.33;98.67;97026.94;5048211;28;20208;-68
2021/10/25 01:22:26;;;;;;;1999.90;999.90;;;;;;;4.37;97.82;97026.53;5048064;28;20181;-68
2021/10/25 01:24:55;;;;;;;1999.90;999.90;;;;;;;4.41;98.01;97036.16;5048107;28;20284;-68
2021/10/25 01:27:23;;;;;;;1999.90;999.90;;;;;;;4.34;98.41;97036.22;5048377;28;20205;-68
2021/10/25 01:29:51;;;;;;;1999.90;999.90;;;;;;;4.37;98.50;97034.25;5047994;28;20590;-68
2021/10/25 01:32:19;;;;;;;1999.90;999.90;;;;;;;4.27;98.69;97035.53;5048038;28;20205;-68
2021/10/25 01:34:47;;;;;;;1999.90;999.90;;;;;;;4.39;98.23;97037.38;5046898;28;20249;-68
2021/10/25 01:37:15;;;;;;;1999.90;999.90;;;;;;;4.33;96.85;97032.06;5048051;28;20193;-68
2021/10/25 01:39:43;;;;;;;1999.90;999.90;;;;;;;4.24;97.19;97035.16;5048060;28;20209;-68
2021/10/25 01:42:10;;;;;;;1999.90;999.90;;;;;;;4.16;97.06;97038.81;5047731;28;20197;-68
2021/10/25 01:44:37;;;;;;;1999.90;999.90;;;;;;;4.06;97.29;97033.38;5047583;28;20221;-68
2021/10/25 01:47:04;;;;;;;1999.90;999.90;;;;;;;3.94;97.71;97031.72;5047835;28;20205;-68
2021/10/25 01:49:31;;;;;;;1999.90;999.90;;;;;;;3.95;98.90;97030.72;5047654;28;20253;-69
2021/10/25 01:52:00;;;;;;;1999.90;999.90;;;;;;;3.97;99.27;97029.53;5048037;28;20208;-68
2021/10/25 01:54:28;;;;;;;1999.90;999.90;;;;;;;4.04;100.00;97030.22;5047949;28;20224;-68
2021/10/25 01:56:55;;;;;;;1999.90;999.90;;;;;;;4.14;100.00;97027.94;5047838;28;20201;-68
2021/10/25 01:59:22;;;;;;;1999.90;999.90;;;;;;;4.24;100.00;97030.00;5047821;28;20230;-68
2021/10/25 02:01:49;;;;;;;1999.90;999.90;;;;;;;4.26;100.00;97028.81;5048002;28;20803;-69
2021/10/25 02:04:16;;;;;;;1999.90;999.90;;;;;;;4.40;100.00;97023.50;5047702;28;20219;-68
2021/10/25 02:06:44;;;;;;;1999.90;999.90;;;;;;;4.40;100.00;97026.88;5047758;28;20233;-69
2021/10/25 02:09:11;;;;;;;1999.90;999.90;;;;;;;4.39;100.00;97027.06;5047449;28;20197;-68
2021/10/25 02:11:39;;;;;;;1999.90;999.90;;;;;;;4.43;100.00;97023.09;5047401;28;20194;-68
2021/10/25 02:14:06;;;;;;;1999.90;999.90;;;;;;;4.41;99.18;97025.06;5047307;28;20266;-68
2021/10/25 02:16:34;;;;;;;1999.90;999.90;;;;;;;4.39;99.70;97027.06;5047333;28;20198;-69
2021/10/25 02:19:01;;;;;;;1999.90;999.90;;;;;;;4.29;98.74;97023.22;5047239;28;20201;-69
2021/10/25 02:21:28;;;;;;;1999.90;999.90;;;;;;;4.20;98.64;97027.09;5047452;28;20250;-68
2021/10/25 02:23:55;;;;;;;1999.90;999.90;;;;;;;4.07;98.65;97016.94;5047242;28;20600;-68
2021/10/25 02:26:22;;;;;;;1999.90;999.90;;;;;;;4.04;99.91;97016.56;5047284;28;20230;-68
2021/10/25 02:28:51;;;;;;;1999.90;999.90;;;;;;;4.13;99.96;97015.31;5047595;28;20195;-69
2021/10/25 02:31:18;;;;;;;1999.90;999.90;;;;;;;4.28;100.00;97020.88;5047287;28;20201;-68
2021/10/25 02:33:45;;;;;;;1999.90;999.90;;;;;;;4.35;99.98;97019.00;5047856;28;20765;-68
2021/10/25 02:36:12;;;;;;;1999.90;999.90;;;;;;;4.39;100.00;97016.78;5047450;28;20200;-69
2021/10/25 02:38:41;;;;;;;1999.90;999.90;;;;;;;4.47;100.00;97004.41;5047111;28;20201;-68
2021/10/25 02:41:10;;;;;;;1999.90;999.90;;;;;;;4.43;100.00;97007.66;5046963;28;20225;-69
2021/10/25 02:43:37;;;;;;;1999.90;999.90;;;;;;;4.46;100.00;97012.34;5046737;28;20233;-69
2021/10/25 02:46:08;;;;;;;1999.90;999.90;;;;;;;4.49;99.60;97009.31;5046949;28;20266;-69
2021/10/25 02:48:37;;;;;;;1999.90;999.90;;;;;;;4.57;98.79;97014.97;5047057;28;20679;-68
2021/10/25 02:51:05;;;;;;;1999.90;999.90;;;;;;;4.49;98.78;97015.25;5046986;28;20340;-68
2021/10/25 02:53:32;;;;;;;1999.90;999.90;;;;;;;4.47;98.07;97024.22;5047050;28;20240;-68
2021/10/25 02:55:59;;;;;;;1999.90;999.90;;;;;;;4.46;97.35;97022.66;5046822;28;20672;-68
2021/10/25 02:58:26;;;;;;;1999.90;999.90;;;;;;;4.26;97.34;97022.88;5046655;28;20193;-68
2021/10/25 03:00:53;;;;;;;1999.90;999.90;;;;;;;4.21;97.41;97015.81;5047060;28;20624;-68
2021/10/25 03:03:22;;;;;;;1999.90;999.90;;;;;;;4.21;98.75;97018.38;5046920;28;20618;-67
2021/10/25 03:05:49;;;;;;;1999.90;999.90;;;;;;;4.20;99.53;97016.78;5046757;28;20208;-69
2021/10/25 03:08:16;;;;;;;1999.90;999.90;;;;;;;4.15;99.92;97016.66;5046619;28;20250;-68
2021/10/25 03:10:44;;;;;;;1999.90;999.90;;;;;;;4.13;99.49;97016.09;5046875;28;20201;-69
2021/10/25 03:13:12;;;;;;;1999.90;999.90;;;;;;;4.12;98.65;97024.03;5046524;28;20687;-68
2021/10/25 03:15:39;;;;;;;1999.90;999.90;;;;;;;4.07;99.02;97021.31;5046461;28;20220;-69
2021/10/25 03:18:06;;;;;;;1999.90;999.90;;;;;;;4.07;99.48;97013.59;5046117;28;20695;-69
2021/10/25 03:20:34;;;;;;;1999.90;999.90;;;;;;;4.05;98.67;97011.22;5046480;28;20205;-68
2021/10/25 03:23:01;;;;;;;1999.90;999.90;;;;;;;3.93;98.33;97012.94;5046408;28;20206;-68
2021/10/25 03:25:28;;;;;;;1999.90;999.90;;;;;;;3.79;98.45;97007.13;5046711;28;20201;-69
2021/10/25 03:27:55;;;;;;;1999.90;999.90;;;;;;;3.71;99.76;97007.41;5046772;28;20236;-69
2021/10/25 03:30:24;;;;;;;1999.90;999.90;;;;;;;3.69;99.45;97006.81;5046215;28;20209;-68
2021/10/25 03:32:52;;;;;;;1999.90;999.90;;;;;;;3.80;99.85;97013.06;5046303;28;20205;-69
2021/10/25 03:35:18;;;;;;;1999.90;999.90;;;;;;;3.65;99.37;97013.41;5046096;28;20270;-69
2021/10/25 03:37:47;;;;;;;1999.90;999.90;;;;;;;3.66;98.99;97011.63;5046324;28;20288;-69
2021/10/25 03:40:14;;;;;;;1999.90;999.90;;;;;;;3.58;99.49;97009.31;5046148;28;20719;-68
2021/10/25 03:42:43;;;;;;;1999.90;999.90;;;;;;;3.53;98.98;97007.41;5046467;28;20233;-69
2021/10/25 03:45:18;;;;;;;1999.90;999.90;;;;;;;3.54;98.84;97008.19;5045911;28;20257;-68
2021/10/25 03:47:50;;;;;;;1999.90;999.90;;;;;;;3.46;99.08;97011.78;5046397;28;20185;-68
2021/10/25 03:50:20;;;;;;;1999.90;999.90;;;;;;;3.46;99.11;97006.66;5046168;28;20197;-69
2021/10/25 03:52:52;;;;;;;1999.90;999.90;;;;;;;3.34;98.95;97014.25;5046083;28;20189;-68
2021/10/25 03:55:26;;;;;;;1999.90;999.90;;;;;;;3.12;100.00;97010.47;5046272;28;20209;-68
2021/10/25 04:01:08;;;;;;;1999.90;999.90;;;;;;;2.88;100.00;97012.03;5049674;28;20330;-68
2021/10/25 04:26:13;;;;;;;1999.90;999.90;;;;;;;2.90;100.00;97012.59;5049024;28;20185;-68
2021/10/25 04:28:41;;;;;;;1999.90;999.90;;;;;;;2.89;100.00;97010.25;5049050;28;20291;-68
2021/10/25 04:31:08;;;;;;;1999.90;999.90;;;;;;;2.92;100.00;97004.69;5048876;28;20580;-68
2021/10/25 04:33:35;;;;;;;1999.90;999.90;;;;;;;2.95;100.00;97001.69;5049038;28;20564;-68
2021/10/25 04:36:02;;;;;;;1999.90;999.90;;;;;;;3.01;100.00;97003.44;5048910;28;20204;-68
2021/10/25 04:38:29;;;;;;;1999.90;999.90;;;;;;;3.00;100.00;96999.28;5048887;28;20250;-68
2021/10/25 04:40:57;;;;;;;1999.90;999.90;;;;;;;3.01;100.00;96999.09;5048959;28;20626;-68
2021/10/25 04:43:24;;;;;;;1999.90;999.90;;;;;;;2.99;100.00;96997.72;5048705;28;20201;-68
2021/10/25 04:45:52;;;;;;;1999.90;999.90;;;;;;;2.98;100.00;97001.28;5048525;28;20229;-68
2021/10/25 04:48:19;;;;;;;1999.90;999.90;;;;;;;2.94;100.00;96998.34;5048736;28;20197;-68
2021/10/25 04:50:46;;;;;;;1999.90;999.90;;;;;;;2.93;100.00;97012.19;5048620;28;20200;-68
2021/10/25 04:53:13;;;;;;;1999.90;999.90;;;;;;;2.81;100.00;97018.16;5048634;28;20261;-68
2021/10/25 04:55:40;;;;;;;1999.90;999.90;;;;;;;2.85;100.00;97027.81;5048268;28;20224;-68
2021/10/25 04:58:09;;;;;;;1999.90;999.90;;;;;;;2.93;100.00;97021.66;5048596;28;20205;-68
2021/10/25 05:00:36;;;;;;;1999.90;999.90;;;;;;;3.00;100.00;97025.75;5048700;28;20657;-68
2021/10/25 05:03:06;;;;;;;1999.90;999.90;;;;;;;3.05;100.00;97020.00;5048424;28;20662;-68
2021/10/25 05:05:33;;;;;;;1999.90;999.90;;;;;;;3.10;100.00;97017.59;5048618;28;20203;-68
2021/10/25 05:08:00;;;;;;;1999.90;999.90;;;;;;;3.25;100.00;97025.00;5045367;28;20230;-68
2021/10/25 05:10:27;;;;;;;1999.90;999.90;;;;;;;3.34;100.00;97027.09;5039470;28;20205;-68
2021/10/25 05:12:54;;;;;;;1999.90;999.90;;;;;;;3.47;100.00;97029.56;5048052;28;20209;-68
2021/10/25 05:15:23;;;;;;;1999.90;999.90;;;;;;;3.52;100.00;97028.94;5048080;28;20225;-68
2021/10/25 05:17:50;;;;;;;1999.90;999.90;;;;;;;3.57;100.00;97036.03;5048338;28;20197;-68
2021/10/25 05:20:17;;;;;;;1999.90;999.90;;;;;;;3.65;100.00;97036.53;5048026;28;20253;-68
2021/10/25 05:22:44;;;;;;;1999.90;999.90;;;;;;;3.72;100.00;97041.63;5048282;28;20217;-69
2021/10/25 05:25:11;;;;;;;1999.90;999.90;;;;;;;3.80;100.00;97047.28;5047509;28;20267;-68
2021/10/25 05:27:39;;;;;;;1999.90;999.90;;;;;;;3.91;100.00;97050.94;5047992;28;20197;-67
2021/10/25 05:30:07;;;;;;;1999.90;999.90;;;;;;;4.00;100.00;97051.44;5048130;28;20680;-68
2021/10/25 05:32:36;;;;;;;1999.90;999.90;;;;;;;4.24;100.00;97048.81;5047769;28;20208;-68
2021/10/25 05:35:03;;;;;;;1999.90;999.90;;;;;;;4.40;100.00;97047.44;5047918;28;20217;-68
2021/10/25 05:37:30;;;;;;;1999.90;999.90;;;;;;;4.50;100.00;97046.94;5047811;28;20204;-68
2021/10/25 05:39:57;;;;;;;1999.90;999.90;;;;;;;4.62;100.00;97058.09;5047892;28;20232;-69
2021/10/25 05:42:25;;;;;;;1999.90;999.90;;;;;;;4.68;99.46;97047.69;5048258;28;20205;-68
2021/10/25 05:44:52;;;;;;;1999.90;999.90;;;;;;;4.77;99.09;97063.66;5047885;28;20799;-68
2021/10/25 05:47:19;;;;;;;1999.90;999.90;;;;;;;4.81;98.95;97064.78;5047631;28;20201;-69
2021/10/25 05:49:48;;;;;;;1999.90;999.90;;;;;;;4.92;97.77;97073.56;5047894;28;20219;-69
2021/10/25 05:52:15;;;;;;;1999.90;999.90;;;;;;;5.07;97.28;97081.69;5047515;28;20730;-69
2021/10/25 05:54:42;;;;;;;1999.90;999.90;;;;;;;5.00;96.64;97071.47;5047926;28;20572;-68
2021/10/25 05:57:09;;;;;;;1999.90;999.90;;;;;;;5.00;97.38;97073.25;5047429;28;20197;-69
2021/10/25 05:59:37;;;;;;;1999.90;999.90;;;;;;;5.03;97.38;97076.16;5047464;28;20197;-69
2021/10/25 06:02:12;;;;;;;1999.90;999.90;;;;;;;5.19;97.02;97079.91;5047380;28;20201;-68
2021/10/25 06:04:40;;;;;;;1999.90;999.90;;;;;;;5.34;96.16;97082.88;5047566;28;20900;-68
2021/10/25 06:07:08;;;;;;;1999.90;999.90;;;;;;;5.57;95.73;97092.47;5047594;28;20204;-68
2021/10/25 06:09:36;;;;;;;1999.90;999.90;;;;;;;5.76;94.89;97085.44;5047804;28;20201;-69
2021/10/25 06:12:08;;;;;;;1999.90;999.90;;;;;;;5.99;93.87;97088.81;5047352;28;20289;-69
2021/10/25 06:14:39;;;;;;;1999.90;999.90;;;;;;;6.20;93.33;97092.63;5047252;28;20212;-68
2021/10/25 06:17:18;;;;;;;1999.90;999.90;;;;;;;6.39;91.63;97095.88;5047431;28;20178;-69
2021/10/25 06:19:45;;;;;;;1999.90;999.90;;;;;;;6.50;91.15;97097.66;5047382;28;20205;-69
2021/10/25 06:22:15;;;;;;;1999.90;999.90;;;;;;;6.63;90.98;97112.09;5046823;28;20200;-69
2021/10/25 06:24:42;;;;;;;1999.90;999.90;;;;;;;6.87;90.78;97109.22;5047267;28;20288;-69
2021/10/25 06:27:09;;;;;;;1999.90;999.90;;;;;;;7.00;90.04;97112.56;5047488;28;20293;-69
2021/10/25 06:29:36;;;;;;;1999.90;999.90;;;;;;;7.08;90.88;97119.94;5047636;28;20205;-69
2021/10/25 06:32:04;;;;;;;1999.90;999.90;;;;;;;7.29;91.02;97119.31;5047337;28;20675;-68
2021/10/25 06:34:37;;;;;;;1999.90;999.90;;;;;;;7.47;90.75;97113.94;5047074;27;20205;-69
2021/10/25 06:37:05;;;;;;;1999.90;999.90;;;;;;;7.64;91.01;97114.75;5047091;28;20185;-69
2021/10/25 06:39:38;;;;;;;1999.90;999.90;;;;;;;7.78;91.86;97100.47;5047186;28;20669;-69
2021/10/25 06:42:05;;;;;;;1999.90;999.90;;;;;;;8.03;89.75;97105.25;5047339;28;20208;-68
2021/10/25 06:44:33;;;;;;;1999.90;999.90;;;;;;;8.14;89.48;97108.78;5047033;28;20285;-69
2021/10/25 06:47:00;;;;;;;1999.90;999.90;;;;;;;8.20;89.44;97108.63;5047041;28;20229;-69
2021/10/25 06:49:28;;;;;;;1999.90;999.90;;;;;;;8.27;89.88;97113.59;5046985;28;20288;-69
2021/10/25 06:51:56;;;;;;;1999.90;999.90;;;;;;;8.39;89.88;97109.16;5046947;28;20199;-69
2021/10/25 06:54:23;;;;;;;1999.90;999.90;;;;;;;8.37;89.29;97118.19;5046884;28;20673;-69
2021/10/25 06:56:52;;;;;;;1999.90;999.90;;;;;;;8.56;88.41;97122.88;5046858;28;20205;-69
2021/10/25 06:59:19;;;;;;;1999.90;999.90;;;;;;;8.51;88.44;97119.41;5047127;28;20205;-69
2021/10/25 07:01:46;;;;;;;1999.90;999.90;;;;;;;8.63;87.74;97127.84;5047010;28;20208;-69
2021/10/25 07:04:13;;;;;;;1999.90;999.90;;;;;;;8.62;88.04;97121.88;5046748;28;20197;-69
2021/10/25 07:06:40;;;;;;;1999.90;999.90;;;;;;;8.77;86.85;97117.91;5047051;28;20265;-69
2021/10/25 07:09:08;;;;;;;1999.90;999.90;;;;;;;8.90;87.75;97122.75;5046676;28;20687;-68
2021/10/25 07:11:38;;;;;;;1999.90;999.90;;;;;;;8.83;87.25;97122.13;5046722;28;20226;-69
2021/10/25 07:14:08;;;;;;;1999.90;999.90;;;;;;;8.88;87.51;97114.41;5046535;28;20208;-69
2021/10/25 07:16:38;;;;;;;1999.90;999.90;;;;;;;8.83;86.82;97116.94;5046590;28;20289;-69
2021/10/25 07:22:13;;;;;;;1999.90;999.90;;;;;;;9.00;85.38;97108.09;5023014;27;20212;-68
2021/10/25 08:05:52;;;;;;;1999.90;999.90;;;;;;;10.09;75.65;97107.75;5049783;28;20593;-69
2021/10/25 08:08:40;;;;;;;1999.90;999.90;;;;;;;10.12;75.18;97104.63;5049415;28;20200;-69
2021/10/25 08:11:09;;;;;;;1999.90;999.90;;;;;;;10.19;75.41;97102.66;5049421;28;20564;-69
2021/10/25 08:13:39;;;;;;;1999.90;999.90;;;;;;;10.30;73.44;97109.47;5049308;28;20288;-69
2021/10/25 08:16:13;;;;;;;1999.90;999.90;;;;;;;10.29;72.59;97105.31;5049519;28;20205;-69
2021/10/25 08:18:56;;;;;;;1999.90;999.90;;;;;;;10.49;74.40;97103.84;5049467;28;20216;-68
2021/10/25 08:21:23;;;;;;;1999.90;999.90;;;;;;;10.64;73.89;97101.31;5049203;28;20185;-69
2021/10/25 08:23:51;;;;;;;1999.90;999.90;;;;;;;10.90;72.83;97105.59;5049179;28;20582;-69
2021/10/25 08:26:18;;;;;;;1999.90;999.90;;;;;;;10.89;71.33;97104.03;5049426;28;20669;-68
2021/10/25 08:28:45;;;;;;;1999.90;999.90;;;;;;;11.01;71.09;97101.97;5049260;28;20202;-69
2021/10/25 08:31:13;;;;;;;1999.90;999.90;;;;;;;11.10;69.19;97100.44;5049008;28;20197;-68
2021/10/25 08:34:04;;;;;;;1999.90;999.90;;;;;;;11.02;69.10;97107.94;5049226;28;20288;-69
2021/10/25 08:39:46;;;;;;;1999.90;999.90;;;;;;;10.83;67.30;97106.84;5048889;28;20228;-69
2021/10/25 08:42:11;;;;;;;1999.90;999.90;;;;;;;10.78;64.77;97099.81;5048938;28;20792;-69
2021/10/25 08:44:39;;;;;;;1999.90;999.90;;;;;;;10.94;66.43;97087.66;5048550;28;20229;-69
2021/10/25 08:47:07;;;;;;;1999.90;999.90;;;;;;;10.82;64.88;97098.25;5048757;28;20580;-69
2021/10/25 08:49:35;;;;;;;1999.90;999.90;;;;;;;10.96;65.87;97091.53;5049018;28;20197;-69
2021/10/25 08:52:03;;;;;;;1999.90;999.90;;;;;;;11.06;64.59;97088.97;5049350;28;20202;-69
2021/10/25 08:54:31;;;;;;;1999.90;999.90;;;;;;;11.00;65.19;97081.44;5049177;28;20204;-69
2021/10/25 08:57:01;;;;;;;1999.90;999.90;;;;;;;11.12;66.61;97087.94;5048534;28;20719;-69
2021/10/25 08:59:30;;;;;;;1999.90;999.90;;;;;;;10.88;65.15;97084.25;5048907;28;20201;-69
2021/10/25 09:02:08;;;;;;;1999.90;999.90;;;;;;;10.98;65.73;97081.66;5048708;28;20193;-69
2021/10/25 09:04:37;;;;;;;1999.90;999.90;;;;;;;11.04;64.54;97087.66;5048867;28;20193;-69
2021/10/25 09:07:04;;;;;;;1999.90;999.90;;;;;;;10.93;65.38;97084.25;5048438;28;20203;-69
2021/10/25 09:09:32;;;;;;;1999.90;999.90;;;;;;;10.90;65.70;97084.00;5048891;28;20641;-69
2021/10/25 09:12:01;;;;;;;1999.90;999.90;;;;;;;10.96;64.22;97086.34;5048680;28;20212;-69
2021/10/25 09:14:30;;;;;;;1999.90;999.90;;;;;;;11.02;66.81;97080.13;5048609;28;20197;-69
2021/10/25 09:17:00;;;;;;;1999.90;999.90;;;;;;;11.18;64.68;97081.72;5048099;28;20217;-69
2021/10/25 09:19:31;;;;;;;1999.90;999.90;;;;;;;11.47;63.68;97083.84;5048246;28;20193;-69
2021/10/25 09:22:11;;;;;;;1999.90;999.90;;;;;;;11.44;60.68;97086.97;5048040;28;20239;-69
2021/10/25 09:24:38;;;;;;;1999.90;999.90;;;;;;;11.37;60.54;97076.78;5048171;28;20558;-69
2021/10/25 09:27:09;;;;;;;1999.90;999.90;;;;;;;11.40;62.18;97072.91;5048170;28;20205;-69
2021/10/25 09:29:40;;;;;;;1999.90;999.90;;;;;;;11.46;62.17;97064.03;5048335;28;20664;-70
2021/10/25 09:32:12;;;;;;;1999.90;999.90;;;;;;;11.69;62.50;97060.94;5048034;28;20192;-69
2021/10/25 09:34:46;;;;;;;1999.90;999.90;;;;;;;11.64;59.38;97053.13;5047868;28;20197;-69
2021/10/25 09:37:17;;;;;;;1999.90;999.90;;;;;;;11.57;60.49;97057.81;5048305;28;20211;-69
2021/10/25 09:39:50;;;;;;;1999.90;999.90;;;;;;;11.67;58.52;97057.81;5048051;28;20189;-69
2021/10/25 09:42:48;;;;;;;1999.90;999.90;;;;;;;11.63;58.29;97056.78;5047921;28;20192;-68
2021/10/25 09:45:39;;;;;;;1999.90;999.90;;;;;;;11.73;56.73;97048.19;5047756;28;20295;-69
2021/10/25 09:50:58;;;;;;;1999.90;999.90;;;;;;;11.63;55.87;97046.34;5047897;28;20181;-68
2021/10/25 09:53:39;;;;;;;1999.90;999.90;;;;;;;11.61;56.51;97038.00;5047707;28;20233;-69
2021/10/25 09:56:10;;;;;;;1999.90;999.90;;;;;;;11.69;58.19;97037.50;5046680;28;20221;-69
2021/10/25 09:58:46;;;;;;;1999.90;999.90;;;;;;;11.55;58.80;97028.66;5047948;28;20189;-69
2021/10/25 10:01:15;;;;;;;1999.90;999.90;;;;;;;11.69;56.77;97029.69;5048044;28;20181;-69
2021/10/25 10:03:45;;;;;;;1999.90;999.90;;;;;;;11.72;54.92;97023.94;5047860;28;20654;-69
2021/10/25 10:06:12;;;;;;;1999.90;999.90;;;;;;;11.84;56.63;97015.88;5047554;28;20217;-69
2021/10/25 10:08:42;;;;;;;1999.90;999.90;;;;;;;12.05;59.96;97007.75;5047823;28;20201;-69
2021/10/25 10:11:12;;;;;;;1999.90;999.90;;;;;;;12.13;56.86;97013.47;5047381;28;20205;-69
2021/10/25 10:13:41;;;;;;;1999.90;999.90;;;;;;;12.03;55.10;97012.47;5047409;28;20565;-69
2021/10/25 10:16:09;;;;;;;1999.90;999.90;;;;;;;11.90;52.98;97015.63;5047352;28;20233;-69
2021/10/25 10:18:39;;;;;;;1999.90;999.90;;;;;;;11.86;54.83;96998.94;5047401;28;20815;-69
2021/10/25 10:21:08;;;;;;;1999.90;999.90;;;;;;;11.88;57.41;97004.69;5047955;28;20205;-68
2021/10/25 10:23:38;;;;;;;1999.90;999.90;;;;;;;11.97;57.90;97003.09;5047235;28;20258;-68
2021/10/25 10:26:14;;;;;;;1999.90;999.90;;;;;;;12.15;58.54;96990.56;5047344;28;20200;-69
2021/10/25 10:28:44;;;;;;;1999.90;999.90;;;;;;;12.21;55.63;96990.25;5047235;28;20648;-69
2021/10/25 10:31:14;;;;;;;1999.90;999.90;;;;;;;12.25;57.26;96980.09;5047741;28;20224;-69
2021/10/25 10:33:43;;;;;;;1999.90;999.90;;;;;;;12.33;53.35;96976.91;5047215;28;20201;-69
2021/10/25 10:36:17;;;;;;;1999.90;999.90;;;;;;;12.14;51.60;96965.53;5046980;28;20652;-69
2021/10/25 10:38:53;;;;;;;1999.90;999.90;;;;;;;12.15;53.16;96969.69;5047060;28;20789;-69
2021/10/25 10:41:23;;;;;;;1999.90;999.90;;;;;;;12.26;52.93;96969.38;5047112;28;20189;-68
2021/10/25 10:44:03;;;;;;;1999.90;999.90;;;;;;;12.42;53.46;96967.47;5046759;28;20236;-69
2021/10/25 10:46:41;;;;;;;1999.90;999.90;;;;;;;12.27;53.34;96962.34;5047297;28;20195;-69
2021/10/25 10:49:19;;;;;;;1999.90;999.90;;;;;;;12.26;52.65;96958.16;5046939;28;20279;-69
2021/10/25 10:52:16;;;;;;;1999.90;999.90;;;;;;;12.44;51.51;96947.94;5047292;28;20258;-68
2021/10/25 10:54:53;;;;;;;1999.90;999.90;;;;;;;12.30;52.17;96946.19;5047202;28;20610;-69
2021/10/25 11:00:10;;;;;;;1999.90;999.90;;;;;;;12.24;50.83;96942.81;5055558;28;20197;-69
2021/10/25 11:02:37;;;;;;;1999.90;999.90;;;;;;;12.35;52.38;96948.75;5047103;28;20220;-69
2021/10/25 11:05:06;;;;;;;1999.90;999.90;;;;;;;12.30;53.86;96939.16;5046976;28;20193;-69
2021/10/25 11:07:39;;;;;;;1999.90;999.90;;;;;;;12.42;53.08;96934.38;5047666;28;20203;-69
2021/10/25 11:10:09;;;;;;;1999.90;999.90;;;;;;;12.45;52.94;96939.03;5050317;28;20192;-69
2021/10/25 11:12:43;;;;;;;1999.90;999.90;;;;;;;12.44;54.89;96916.66;5050192;28;20693;-69
2021/10/25 11:15:14;;;;;;;1999.90;999.90;;;;;;;12.62;51.24;96917.81;5050245;28;20215;-69
2021/10/25 11:17:41;;;;;;;1999.90;999.90;;;;;;;12.51;54.43;96916.31;5050313;28;20633;-69
2021/10/25 11:20:10;;;;;;;1999.90;999.90;;;;;;;12.56;52.38;96923.34;5050105;28;20201;-69
2021/10/25 11:22:39;;;;;;;1999.90;999.90;;;;;;;12.54;54.04;96925.44;5050284;28;20197;-69
2021/10/25 11:25:10;;;;;;;1999.90;999.90;;;;;;;12.59;52.27;96918.38;5049990;28;20689;-69
2021/10/25 11:27:40;;;;;;;1999.90;999.90;;;;;;;12.58;51.94;96911.59;5050434;28;20246;-69
2021/10/25 11:30:13;;;;;;;1999.90;999.90;;;;;;;12.56;53.35;96908.47;5049970;28;20660;-69
2021/10/25 11:32:42;;;;;;;1999.90;999.90;;;;;;;12.62;51.44;96910.00;5050118;28;20227;-69
2021/10/25 11:35:13;;;;;;;1999.90;999.90;;;;;;;12.54;51.77;96900.16;5050113;28;20197;-69
2021/10/25 11:37:47;;;;;;;1999.90;999.90;;;;;;;12.69;52.10;96894.84;5049847;28;20209;-69
2021/10/25 11:40:17;;;;;;;1999.90;999.90;;;;;;;12.63;52.72;96895.91;5050125;28;20197;-69
2021/10/25 11:42:47;;;;;;;1999.90;999.90;;;;;;;12.59;50.62;96892.31;5049886;28;20185;-69
2021/10/25 11:45:16;;;;;;;1999.90;999.90;;;;;;;12.87;49.03;96894.19;5049697;28;20232;-69
2021/10/25 11:47:45;;;;;;;1999.90;999.90;;;;;;;12.79;51.01;96880.94;5050050;28;20197;-69
2021/10/25 11:50:14;;;;;;;1999.90;999.90;;;;;;;13.03;49.86;96881.00;5049977;28;20249;-69
2021/10/25 11:52:46;;;;;;;1999.90;999.90;;;;;;;12.77;51.03;96878.59;5050067;28;20189;-69
2021/10/25 11:55:15;;;;;;;1999.90;999.90;;;;;;;12.80;49.22;96877.28;5049653;28;20597;-69
2021/10/25 11:57:48;;;;;;;1999.90;999.90;;;;;;;12.83;49.03;96874.13;5050065;28;20225;-69
2021/10/25 12:00:16;;;;;;;1999.90;999.90;;;;;;;12.81;46.79;96866.56;5050179;28;20208;-69
2021/10/25 12:02:45;;;;;;;1999.90;999.90;;;;;;;12.86;47.83;96861.31;5050101;28;20197;-69
2021/10/25 12:05:18;;;;;;;1999.90;999.90;;;;;;;12.94;49.68;96860.72;5049761;28;20265;-69
2021/10/25 12:07:49;;;;;;;1999.90;999.90;;;;;;;13.18;49.13;96858.19;5049547;28;20185;-69
2021/10/25 12:10:17;;;;;;;1999.90;999.90;;;;;;;13.07;49.10;96858.53;5049396;28;20197;-69
2021/10/25 12:12:45;;;;;;;1999.90;999.90;;;;;;;12.98;49.94;96853.13;5049627;28;20312;-69
2021/10/25 12:15:19;;;;;;;1999.90;999.90;;;;;;;13.02;49.71;96841.06;5049290;28;20201;-69
2021/10/25 12:17:46;;;;;;;1999.90;999.90;;;;;;;13.15;50.41;96844.91;5049304;28;20261;-69
2021/10/25 12:20:23;;;;;;;1999.90;999.90;;;;;;;13.21;50.71;96851.63;5048324;28;20193;-69
2021/10/25 12:22:59;;;;;;;1999.90;999.90;;;;;;;13.19;48.93;96853.75;5049247;28;20280;-69
2021/10/25 12:25:26;;;;;;;1999.90;999.90;;;;;;;13.17;47.57;96840.19;5049109;28;20195;-69